sensor_id;sensor_type;location;lat;lon;timestamp;P1;durP1;ratioP1;P2;durP2;ratioP2
60979;SDS011;46851;49.160;8.980;2024-01-30T00:00:33;20.83;;;12.13;;
60979;SDS011;46851;49.160;8.980;2024-01-30T00:02:59;23.17;;;12.43;;
60979;SDS011;46851;49.160;8.980;2024-01-30T00:05:25;19.88;;;12.35;;
60979;SDS011;46851;49.160;8.980;2024-01-30T00:07:51;24.45;;;11.45;;
60979;SDS011;46851;49.160;8.980;2024-01-30T00:10:17;18.50;;;10.88;;
60979;SDS011;46851;49.160;8.980;2024-01-30T00:12:43;19.00;;;11.52;;
60979;SDS011;46851;49.160;8.980;2024-01-30T00:15:10;18.80;;;11.38;;
60979;SDS011;46851;49.160;8.980;2024-01-30T00:17:36;23.85;;;12.20;;
60979;SDS011;46851;49.160;8.980;2024-01-30T00:20:02;21.92;;;11.25;;
60979;SDS011;46851;49.160;8.980;2024-01-30T00:22:32;18.00;;;11.30;;
60979;SDS011;46851;49.160;8.980;2024-01-30T00:24:58;22.45;;;12.18;;
60979;SDS011;46851;49.160;8.980;2024-01-30T00:27:24;21.95;;;12.43;;
60979;SDS011;46851;49.160;8.980;2024-01-30T00:29:50;19.33;;;11.82;;
60979;SDS011;46851;49.160;8.980;2024-01-30T00:32:16;23.45;;;11.77;;
60979;SDS011;46851;49.160;8.980;2024-01-30T00:34:44;17.70;;;11.00;;
60979;SDS011;46851;49.160;8.980;2024-01-30T00:37:10;20.85;;;11.90;;
60979;SDS011;46851;49.160;8.980;2024-01-30T00:39:36;22.02;;;10.75;;
60979;SDS011;46851;49.160;8.980;2024-01-30T00:42:02;21.10;;;11.90;;
60979;SDS011;46851;49.160;8.980;2024-01-30T00:44:28;21.00;;;11.98;;
60979;SDS011;46851;49.160;8.980;2024-01-30T00:46:54;21.20;;;12.25;;
60979;SDS011;46851;49.160;8.980;2024-01-30T00:49:20;21.77;;;12.70;;
60979;SDS011;46851;49.160;8.980;2024-01-30T00:51:46;23.25;;;11.93;;
60979;SDS011;46851;49.160;8.980;2024-01-30T00:54:12;22.17;;;11.73;;
60979;SDS011;46851;49.160;8.980;2024-01-30T00:56:38;20.15;;;12.07;;
60979;SDS011;46851;49.160;8.980;2024-01-30T00:59:04;19.90;;;12.40;;
60979;SDS011;46851;49.160;8.980;2024-01-30T01:01:30;19.98;;;11.55;;
60979;SDS011;46851;49.160;8.980;2024-01-30T01:03:56;22.98;;;12.50;;
60979;SDS011;46851;49.160;8.980;2024-01-30T01:06:23;18.60;;;11.85;;
60979;SDS011;46851;49.160;8.980;2024-01-30T01:08:49;21.85;;;11.65;;
60979;SDS011;46851;49.160;8.980;2024-01-30T01:11:15;19.52;;;11.70;;
60979;SDS011;46851;49.160;8.980;2024-01-30T01:13:41;19.67;;;11.82;;
60979;SDS011;46851;49.160;8.980;2024-01-30T01:16:07;23.42;;;12.68;;
60979;SDS011;46851;49.160;8.980;2024-01-30T01:18:33;20.00;;;13.15;;
60979;SDS011;46851;49.160;8.980;2024-01-30T01:20:59;22.52;;;12.05;;
60979;SDS011;46851;49.160;8.980;2024-01-30T01:23:25;23.33;;;13.13;;
60979;SDS011;46851;49.160;8.980;2024-01-30T01:25:52;22.73;;;11.82;;
60979;SDS011;46851;49.160;8.980;2024-01-30T01:28:18;20.75;;;11.55;;
60979;SDS011;46851;49.160;8.980;2024-01-30T01:30:44;19.83;;;11.63;;
60979;SDS011;46851;49.160;8.980;2024-01-30T01:33:09;19.25;;;10.70;;
60979;SDS011;46851;49.160;8.980;2024-01-30T01:35:38;19.40;;;11.77;;
60979;SDS011;46851;49.160;8.980;2024-01-30T01:38:05;16.05;;;10.77;;
60979;SDS011;46851;49.160;8.980;2024-01-30T01:40:31;20.58;;;12.43;;
60979;SDS011;46851;49.160;8.980;2024-01-30T01:42:57;19.80;;;11.68;;
60979;SDS011;46851;49.160;8.980;2024-01-30T01:45:23;18.13;;;10.63;;
60979;SDS011;46851;49.160;8.980;2024-01-30T01:47:52;19.30;;;11.07;;
60979;SDS011;46851;49.160;8.980;2024-01-30T01:50:18;23.05;;;11.20;;
60979;SDS011;46851;49.160;8.980;2024-01-30T01:52:46;19.08;;;11.05;;
60979;SDS011;46851;49.160;8.980;2024-01-30T01:55:13;19.35;;;11.10;;
60979;SDS011;46851;49.160;8.980;2024-01-30T01:57:39;20.50;;;10.60;;
60979;SDS011;46851;49.160;8.980;2024-01-30T02:00:06;24.13;;;11.63;;
60979;SDS011;46851;49.160;8.980;2024-01-30T02:02:34;20.83;;;10.93;;
60979;SDS011;46851;49.160;8.980;2024-01-30T02:05:00;18.73;;;11.43;;
60979;SDS011;46851;49.160;8.980;2024-01-30T02:07:27;19.13;;;11.90;;
60979;SDS011;46851;49.160;8.980;2024-01-30T02:09:53;24.00;;;12.38;;
60979;SDS011;46851;49.160;8.980;2024-01-30T02:12:19;20.13;;;11.48;;
60979;SDS011;46851;49.160;8.980;2024-01-30T02:14:48;21.70;;;12.07;;
60979;SDS011;46851;49.160;8.980;2024-01-30T02:17:15;20.85;;;11.82;;
60979;SDS011;46851;49.160;8.980;2024-01-30T02:19:41;21.05;;;12.18;;
60979;SDS011;46851;49.160;8.980;2024-01-30T02:22:07;22.25;;;12.13;;
60979;SDS011;46851;49.160;8.980;2024-01-30T02:24:34;21.85;;;12.63;;
60979;SDS011;46851;49.160;8.980;2024-01-30T02:26:59;23.88;;;13.30;;
60979;SDS011;46851;49.160;8.980;2024-01-30T02:29:25;30.35;;;13.25;;
60979;SDS011;46851;49.160;8.980;2024-01-30T02:31:51;21.08;;;12.60;;
60979;SDS011;46851;49.160;8.980;2024-01-30T02:34:18;24.52;;;14.05;;
60979;SDS011;46851;49.160;8.980;2024-01-30T02:36:44;23.02;;;14.40;;
60979;SDS011;46851;49.160;8.980;2024-01-30T02:39:10;28.45;;;14.48;;
60979;SDS011;46851;49.160;8.980;2024-01-30T02:41:36;27.75;;;14.90;;
60979;SDS011;46851;49.160;8.980;2024-01-30T02:44:03;30.35;;;17.67;;
60979;SDS011;46851;49.160;8.980;2024-01-30T02:46:29;26.08;;;14.75;;
60979;SDS011;46851;49.160;8.980;2024-01-30T02:48:55;26.88;;;14.65;;
60979;SDS011;46851;49.160;8.980;2024-01-30T02:51:22;21.58;;;13.90;;
60979;SDS011;46851;49.160;8.980;2024-01-30T02:53:48;21.95;;;12.60;;
60979;SDS011;46851;49.160;8.980;2024-01-30T02:56:14;21.75;;;13.27;;
60979;SDS011;46851;49.160;8.980;2024-01-30T02:58:40;24.45;;;13.13;;
60979;SDS011;46851;49.160;8.980;2024-01-30T03:01:06;20.15;;;13.07;;
60979;SDS011;46851;49.160;8.980;2024-01-30T03:03:32;23.77;;;12.55;;
60979;SDS011;46851;49.160;8.980;2024-01-30T03:06:00;26.33;;;14.35;;
60979;SDS011;46851;49.160;8.980;2024-01-30T03:08:27;27.00;;;13.95;;
60979;SDS011;46851;49.160;8.980;2024-01-30T03:10:53;23.25;;;14.20;;
60979;SDS011;46851;49.160;8.980;2024-01-30T03:13:19;26.58;;;14.32;;
60979;SDS011;46851;49.160;8.980;2024-01-30T03:15:45;27.23;;;15.20;;
60979;SDS011;46851;49.160;8.980;2024-01-30T03:18:11;26.08;;;15.23;;
60979;SDS011;46851;49.160;8.980;2024-01-30T03:20:37;26.80;;;15.50;;
60979;SDS011;46851;49.160;8.980;2024-01-30T03:23:03;28.95;;;16.35;;
60979;SDS011;46851;49.160;8.980;2024-01-30T03:25:29;33.72;;;16.05;;
60979;SDS011;46851;49.160;8.980;2024-01-30T03:27:55;24.13;;;14.45;;
60979;SDS011;46851;49.160;8.980;2024-01-30T03:30:21;28.90;;;14.38;;
60979;SDS011;46851;49.160;8.980;2024-01-30T03:32:47;26.30;;;14.63;;
60979;SDS011;46851;49.160;8.980;2024-01-30T03:35:13;27.33;;;15.35;;
60979;SDS011;46851;49.160;8.980;2024-01-30T03:37:40;29.58;;;15.93;;
60979;SDS011;46851;49.160;8.980;2024-01-30T03:40:06;31.40;;;15.23;;
60979;SDS011;46851;49.160;8.980;2024-01-30T03:42:32;32.38;;;15.60;;
60979;SDS011;46851;49.160;8.980;2024-01-30T03:44:58;36.05;;;16.63;;
60979;SDS011;46851;49.160;8.980;2024-01-30T03:47:24;32.83;;;17.30;;
60979;SDS011;46851;49.160;8.980;2024-01-30T03:49:50;28.08;;;14.85;;
60979;SDS011;46851;49.160;8.980;2024-01-30T03:52:16;27.38;;;15.10;;
60979;SDS011;46851;49.160;8.980;2024-01-30T03:54:42;29.23;;;15.52;;
60979;SDS011;46851;49.160;8.980;2024-01-30T03:57:08;36.40;;;17.00;;
60979;SDS011;46851;49.160;8.980;2024-01-30T03:59:34;30.30;;;15.85;;
60979;SDS011;46851;49.160;8.980;2024-01-30T04:02:00;26.33;;;15.32;;
60979;SDS011;46851;49.160;8.980;2024-01-30T04:04:26;28.33;;;15.63;;
60979;SDS011;46851;49.160;8.980;2024-01-30T04:06:52;27.88;;;14.95;;
60979;SDS011;46851;49.160;8.980;2024-01-30T04:09:18;24.73;;;15.50;;
60979;SDS011;46851;49.160;8.980;2024-01-30T04:11:44;30.52;;;15.55;;
60979;SDS011;46851;49.160;8.980;2024-01-30T04:14:10;29.58;;;16.25;;
60979;SDS011;46851;49.160;8.980;2024-01-30T04:16:36;24.42;;;14.82;;
60979;SDS011;46851;49.160;8.980;2024-01-30T04:19:02;32.55;;;15.68;;
60979;SDS011;46851;49.160;8.980;2024-01-30T04:21:28;27.88;;;14.95;;
60979;SDS011;46851;49.160;8.980;2024-01-30T04:23:54;28.35;;;15.52;;
60979;SDS011;46851;49.160;8.980;2024-01-30T04:26:20;28.25;;;15.40;;
60979;SDS011;46851;49.160;8.980;2024-01-30T04:28:46;29.50;;;15.25;;
60979;SDS011;46851;49.160;8.980;2024-01-30T04:31:12;27.60;;;15.27;;
60979;SDS011;46851;49.160;8.980;2024-01-30T04:33:38;31.48;;;15.07;;
60979;SDS011;46851;49.160;8.980;2024-01-30T04:36:04;29.95;;;14.80;;
60979;SDS011;46851;49.160;8.980;2024-01-30T04:38:31;28.73;;;14.35;;
60979;SDS011;46851;49.160;8.980;2024-01-30T04:40:57;28.67;;;15.95;;
60979;SDS011;46851;49.160;8.980;2024-01-30T04:43:23;26.10;;;13.80;;
60979;SDS011;46851;49.160;8.980;2024-01-30T04:45:51;26.50;;;14.40;;
60979;SDS011;46851;49.160;8.980;2024-01-30T04:48:17;28.95;;;15.43;;
60979;SDS011;46851;49.160;8.980;2024-01-30T04:50:43;28.02;;;15.35;;
60979;SDS011;46851;49.160;8.980;2024-01-30T04:53:09;28.00;;;14.07;;
60979;SDS011;46851;49.160;8.980;2024-01-30T04:55:35;22.77;;;14.45;;
60979;SDS011;46851;49.160;8.980;2024-01-30T04:58:01;28.60;;;14.63;;
60979;SDS011;46851;49.160;8.980;2024-01-30T05:09:05;27.50;;;15.63;;
60979;SDS011;46851;49.160;8.980;2024-01-30T05:11:36;26.15;;;14.32;;
60979;SDS011;46851;49.160;8.980;2024-01-30T05:14:03;24.95;;;15.30;;
60979;SDS011;46851;49.160;8.980;2024-01-30T05:16:29;30.90;;;15.52;;
60979;SDS011;46851;49.160;8.980;2024-01-30T05:18:56;29.30;;;15.40;;
60979;SDS011;46851;49.160;8.980;2024-01-30T05:21:23;37.67;;;17.23;;
60979;SDS011;46851;49.160;8.980;2024-01-30T05:23:49;35.95;;;18.25;;
60979;SDS011;46851;49.160;8.980;2024-01-30T05:26:15;42.33;;;17.90;;
60979;SDS011;46851;49.160;8.980;2024-01-30T05:28:41;44.80;;;21.45;;
60979;SDS011;46851;49.160;8.980;2024-01-30T05:31:09;36.45;;;18.35;;
60979;SDS011;46851;49.160;8.980;2024-01-30T05:33:35;26.70;;;15.13;;
60979;SDS011;46851;49.160;8.980;2024-01-30T05:36:02;27.42;;;14.27;;
60979;SDS011;46851;49.160;8.980;2024-01-30T05:38:28;29.52;;;16.80;;
60979;SDS011;46851;49.160;8.980;2024-01-30T05:40:54;28.67;;;15.35;;
60979;SDS011;46851;49.160;8.980;2024-01-30T05:43:20;22.33;;;13.98;;
60979;SDS011;46851;49.160;8.980;2024-01-30T05:45:46;24.60;;;13.60;;
60979;SDS011;46851;49.160;8.980;2024-01-30T05:48:12;24.35;;;13.75;;
60979;SDS011;46851;49.160;8.980;2024-01-30T05:50:38;24.58;;;14.10;;
60979;SDS011;46851;49.160;8.980;2024-01-30T05:53:04;26.10;;;14.32;;
60979;SDS011;46851;49.160;8.980;2024-01-30T05:55:30;21.88;;;13.38;;
60979;SDS011;46851;49.160;8.980;2024-01-30T05:57:56;20.65;;;13.70;;
60979;SDS011;46851;49.160;8.980;2024-01-30T06:00:22;43.88;;;22.83;;
60979;SDS011;46851;49.160;8.980;2024-01-30T06:02:48;53.85;;;29.80;;
60979;SDS011;46851;49.160;8.980;2024-01-30T06:05:14;49.38;;;26.02;;
60979;SDS011;46851;49.160;8.980;2024-01-30T06:07:40;36.63;;;21.08;;
60979;SDS011;46851;49.160;8.980;2024-01-30T06:10:06;37.75;;;21.13;;
60979;SDS011;46851;49.160;8.980;2024-01-30T06:12:33;34.50;;;19.65;;
60979;SDS011;46851;49.160;8.980;2024-01-30T06:14:59;36.53;;;18.45;;
60979;SDS011;46851;49.160;8.980;2024-01-30T06:17:25;31.70;;;17.17;;
60979;SDS011;46851;49.160;8.980;2024-01-30T06:19:51;31.10;;;17.90;;
60979;SDS011;46851;49.160;8.980;2024-01-30T06:22:17;30.13;;;16.60;;
60979;SDS011;46851;49.160;8.980;2024-01-30T06:24:43;32.65;;;16.38;;
60979;SDS011;46851;49.160;8.980;2024-01-30T06:27:15;29.98;;;16.45;;
60979;SDS011;46851;49.160;8.980;2024-01-30T06:29:42;32.83;;;16.95;;
60979;SDS011;46851;49.160;8.980;2024-01-30T06:32:09;27.08;;;16.30;;
60979;SDS011;46851;49.160;8.980;2024-01-30T06:34:35;29.08;;;16.02;;
60979;SDS011;46851;49.160;8.980;2024-01-30T06:37:01;31.05;;;17.13;;
60979;SDS011;46851;49.160;8.980;2024-01-30T06:39:27;27.65;;;15.70;;
60979;SDS011;46851;49.160;8.980;2024-01-30T06:41:53;33.42;;;16.65;;
60979;SDS011;46851;49.160;8.980;2024-01-30T06:44:19;30.65;;;16.05;;
60979;SDS011;46851;49.160;8.980;2024-01-30T06:46:45;25.77;;;14.23;;
60979;SDS011;46851;49.160;8.980;2024-01-30T06:49:11;32.15;;;14.32;;
60979;SDS011;46851;49.160;8.980;2024-01-30T06:51:37;24.50;;;14.25;;
60979;SDS011;46851;49.160;8.980;2024-01-30T06:54:03;24.02;;;14.27;;
60979;SDS011;46851;49.160;8.980;2024-01-30T06:56:29;26.50;;;13.82;;
60979;SDS011;46851;49.160;8.980;2024-01-30T06:58:55;28.15;;;14.00;;
60979;SDS011;46851;49.160;8.980;2024-01-30T07:01:27;26.83;;;13.93;;
60979;SDS011;46851;49.160;8.980;2024-01-30T07:03:54;24.20;;;12.77;;
60979;SDS011;46851;49.160;8.980;2024-01-30T07:06:20;24.45;;;14.25;;
60979;SDS011;46851;49.160;8.980;2024-01-30T07:08:47;24.63;;;14.10;;
60979;SDS011;46851;49.160;8.980;2024-01-30T07:11:18;25.27;;;14.48;;
60979;SDS011;46851;49.160;8.980;2024-01-30T07:13:44;24.63;;;14.30;;
60979;SDS011;46851;49.160;8.980;2024-01-30T07:16:10;29.48;;;15.15;;
60979;SDS011;46851;49.160;8.980;2024-01-30T07:18:36;25.88;;;15.77;;
60979;SDS011;46851;49.160;8.980;2024-01-30T07:21:02;22.83;;;14.63;;
60979;SDS011;46851;49.160;8.980;2024-01-30T07:23:28;29.13;;;14.77;;
60979;SDS011;46851;49.160;8.980;2024-01-30T07:25:55;26.33;;;15.25;;
60979;SDS011;46851;49.160;8.980;2024-01-30T07:28:21;25.27;;;14.20;;
60979;SDS011;46851;49.160;8.980;2024-01-30T07:30:47;26.30;;;15.32;;
60979;SDS011;46851;49.160;8.980;2024-01-30T07:33:13;25.75;;;12.77;;
60979;SDS011;46851;49.160;8.980;2024-01-30T07:35:39;25.08;;;13.23;;
60979;SDS011;46851;49.160;8.980;2024-01-30T07:38:05;21.23;;;13.10;;
60979;SDS011;46851;49.160;8.980;2024-01-30T07:40:31;23.35;;;13.73;;
60979;SDS011;46851;49.160;8.980;2024-01-30T07:42:58;23.63;;;13.85;;
60979;SDS011;46851;49.160;8.980;2024-01-30T07:45:24;20.38;;;13.68;;
60979;SDS011;46851;49.160;8.980;2024-01-30T07:47:52;21.30;;;12.15;;
60979;SDS011;46851;49.160;8.980;2024-01-30T07:50:18;21.23;;;12.32;;
60979;SDS011;46851;49.160;8.980;2024-01-30T07:52:44;19.95;;;12.20;;
60979;SDS011;46851;49.160;8.980;2024-01-30T07:55:10;23.45;;;13.35;;
60979;SDS011;46851;49.160;8.980;2024-01-30T07:57:40;22.17;;;12.15;;
60979;SDS011;46851;49.160;8.980;2024-01-30T08:00:06;20.60;;;12.38;;
60979;SDS011;46851;49.160;8.980;2024-01-30T08:02:32;27.10;;;13.75;;
60979;SDS011;46851;49.160;8.980;2024-01-30T08:04:58;19.83;;;12.32;;
60979;SDS011;46851;49.160;8.980;2024-01-30T08:07:24;21.83;;;12.45;;
60979;SDS011;46851;49.160;8.980;2024-01-30T08:09:50;18.95;;;11.73;;
60979;SDS011;46851;49.160;8.980;2024-01-30T08:12:17;20.88;;;10.65;;
60979;SDS011;46851;49.160;8.980;2024-01-30T08:14:43;22.05;;;11.60;;
60979;SDS011;46851;49.160;8.980;2024-01-30T08:17:09;21.25;;;12.30;;
60979;SDS011;46851;49.160;8.980;2024-01-30T08:19:34;21.55;;;12.50;;
60979;SDS011;46851;49.160;8.980;2024-01-30T08:22:00;23.30;;;12.07;;
60979;SDS011;46851;49.160;8.980;2024-01-30T08:24:26;26.17;;;13.45;;
60979;SDS011;46851;49.160;8.980;2024-01-30T08:26:52;21.00;;;11.38;;
60979;SDS011;46851;49.160;8.980;2024-01-30T08:29:18;16.17;;;11.02;;
60979;SDS011;46851;49.160;8.980;2024-01-30T08:31:44;18.45;;;10.77;;
60979;SDS011;46851;49.160;8.980;2024-01-30T08:34:11;19.02;;;9.85;;
60979;SDS011;46851;49.160;8.980;2024-01-30T08:36:37;15.60;;;9.63;;
60979;SDS011;46851;49.160;8.980;2024-01-30T08:39:03;16.63;;;9.68;;
60979;SDS011;46851;49.160;8.980;2024-01-30T08:41:30;16.10;;;9.45;;
60979;SDS011;46851;49.160;8.980;2024-01-30T08:43:56;14.82;;;9.57;;
60979;SDS011;46851;49.160;8.980;2024-01-30T08:46:22;20.83;;;9.40;;
60979;SDS011;46851;49.160;8.980;2024-01-30T08:48:48;18.75;;;9.32;;
60979;SDS011;46851;49.160;8.980;2024-01-30T08:51:14;15.32;;;9.30;;
60979;SDS011;46851;49.160;8.980;2024-01-30T08:53:40;13.07;;;8.82;;
60979;SDS011;46851;49.160;8.980;2024-01-30T08:56:06;20.20;;;8.80;;
60979;SDS011;46851;49.160;8.980;2024-01-30T08:58:32;16.38;;;9.35;;
60979;SDS011;46851;49.160;8.980;2024-01-30T09:00:58;15.68;;;8.80;;
60979;SDS011;46851;49.160;8.980;2024-01-30T09:03:25;16.63;;;9.45;;
60979;SDS011;46851;49.160;8.980;2024-01-30T09:05:51;13.57;;;8.27;;
60979;SDS011;46851;49.160;8.980;2024-01-30T09:08:17;14.85;;;8.48;;
60979;SDS011;46851;49.160;8.980;2024-01-30T09:10:43;14.30;;;8.07;;
60979;SDS011;46851;49.160;8.980;2024-01-30T09:13:09;12.98;;;8.02;;
60979;SDS011;46851;49.160;8.980;2024-01-30T09:15:35;13.82;;;8.40;;
60979;SDS011;46851;49.160;8.980;2024-01-30T09:18:01;12.98;;;8.38;;
60979;SDS011;46851;49.160;8.980;2024-01-30T09:20:27;13.45;;;8.68;;
60979;SDS011;46851;49.160;8.980;2024-01-30T09:22:53;17.92;;;9.25;;
60979;SDS011;46851;49.160;8.980;2024-01-30T09:25:19;16.35;;;10.05;;
60979;SDS011;46851;49.160;8.980;2024-01-30T09:27:46;19.45;;;11.23;;
60979;SDS011;46851;49.160;8.980;2024-01-30T09:30:12;18.35;;;9.75;;
60979;SDS011;46851;49.160;8.980;2024-01-30T09:32:39;16.63;;;10.40;;
60979;SDS011;46851;49.160;8.980;2024-01-30T09:35:06;17.23;;;10.15;;
60979;SDS011;46851;49.160;8.980;2024-01-30T09:37:32;20.35;;;9.80;;
60979;SDS011;46851;49.160;8.980;2024-01-30T09:39:58;12.70;;;8.90;;
60979;SDS011;46851;49.160;8.980;2024-01-30T09:44:50;14.13;;;8.40;;
60979;SDS011;46851;49.160;8.980;2024-01-30T09:47:17;21.08;;;8.77;;
60979;SDS011;46851;49.160;8.980;2024-01-30T09:49:43;13.80;;;8.50;;
60979;SDS011;46851;49.160;8.980;2024-01-30T09:52:10;13.25;;;8.50;;
60979;SDS011;46851;49.160;8.980;2024-01-30T09:54:38;13.82;;;8.80;;
60979;SDS011;46851;49.160;8.980;2024-01-30T09:57:04;18.83;;;9.65;;
60979;SDS011;46851;49.160;8.980;2024-01-30T09:59:30;14.48;;;8.27;;
60979;SDS011;46851;49.160;8.980;2024-01-30T10:01:57;15.88;;;8.88;;
60979;SDS011;46851;49.160;8.980;2024-01-30T10:04:23;16.35;;;9.57;;
60979;SDS011;46851;49.160;8.980;2024-01-30T10:06:49;14.90;;;9.00;;
60979;SDS011;46851;49.160;8.980;2024-01-30T10:09:15;19.15;;;9.38;;
60979;SDS011;46851;49.160;8.980;2024-01-30T10:11:41;16.30;;;8.90;;
60979;SDS011;46851;49.160;8.980;2024-01-30T10:14:07;17.20;;;10.05;;
60979;SDS011;46851;49.160;8.980;2024-01-30T10:16:34;19.75;;;10.02;;
60979;SDS011;46851;49.160;8.980;2024-01-30T10:19:00;18.15;;;10.40;;
60979;SDS011;46851;49.160;8.980;2024-01-30T10:21:26;17.65;;;10.93;;
60979;SDS011;46851;49.160;8.980;2024-01-30T10:23:52;20.90;;;9.85;;
60979;SDS011;46851;49.160;8.980;2024-01-30T10:26:18;15.00;;;8.98;;
60979;SDS011;46851;49.160;8.980;2024-01-30T10:28:44;17.60;;;9.75;;
60979;SDS011;46851;49.160;8.980;2024-01-30T10:31:10;14.48;;;9.00;;
60979;SDS011;46851;49.160;8.980;2024-01-30T10:33:36;16.15;;;9.70;;
60979;SDS011;46851;49.160;8.980;2024-01-30T10:36:05;15.25;;;9.38;;
60979;SDS011;46851;49.160;8.980;2024-01-30T10:38:32;13.93;;;9.07;;
60979;SDS011;46851;49.160;8.980;2024-01-30T10:40:59;13.27;;;8.82;;
60979;SDS011;46851;49.160;8.980;2024-01-30T10:43:44;16.35;;;10.10;;
60979;SDS011;46851;49.160;8.980;2024-01-30T10:46:19;16.75;;;9.60;;
60979;SDS011;46851;49.160;8.980;2024-01-30T10:48:50;16.05;;;9.50;;
60979;SDS011;46851;49.160;8.980;2024-01-30T10:51:16;16.63;;;9.90;;
60979;SDS011;46851;49.160;8.980;2024-01-30T10:53:44;14.60;;;9.23;;
60979;SDS011;46851;49.160;8.980;2024-01-30T10:56:13;13.27;;;9.33;;
60979;SDS011;46851;49.160;8.980;2024-01-30T10:58:39;15.18;;;9.13;;
60979;SDS011;46851;49.160;8.980;2024-01-30T11:01:05;14.32;;;9.60;;
60979;SDS011;46851;49.160;8.980;2024-01-30T11:03:32;13.25;;;8.68;;
60979;SDS011;46851;49.160;8.980;2024-01-30T11:06:00;14.85;;;9.20;;
60979;SDS011;46851;49.160;8.980;2024-01-30T11:08:26;16.05;;;9.63;;
60979;SDS011;46851;49.160;8.980;2024-01-30T11:10:56;14.82;;;9.55;;
60979;SDS011;46851;49.160;8.980;2024-01-30T11:13:26;15.68;;;9.27;;
60979;SDS011;46851;49.160;8.980;2024-01-30T11:15:52;16.55;;;9.70;;
60979;SDS011;46851;49.160;8.980;2024-01-30T11:18:24;17.20;;;9.07;;
60979;SDS011;46851;49.160;8.980;2024-01-30T11:20:51;12.60;;;8.55;;
60979;SDS011;46851;49.160;8.980;2024-01-30T11:23:17;12.93;;;8.93;;
60979;SDS011;46851;49.160;8.980;2024-01-30T11:25:43;15.73;;;9.48;;
60979;SDS011;46851;49.160;8.980;2024-01-30T11:28:16;17.70;;;9.88;;
60979;SDS011;46851;49.160;8.980;2024-01-30T11:30:42;15.02;;;8.93;;
60979;SDS011;46851;49.160;8.980;2024-01-30T11:33:09;15.95;;;8.73;;
60979;SDS011;46851;49.160;8.980;2024-01-30T11:35:42;17.55;;;9.50;;
60979;SDS011;46851;49.160;8.980;2024-01-30T11:38:09;20.60;;;10.20;;
60979;SDS011;46851;49.160;8.980;2024-01-30T11:40:36;17.23;;;10.27;;
60979;SDS011;46851;49.160;8.980;2024-01-30T11:43:03;15.68;;;9.60;;
60979;SDS011;46851;49.160;8.980;2024-01-30T11:45:32;22.60;;;9.80;;
60979;SDS011;46851;49.160;8.980;2024-01-30T11:47:58;15.57;;;9.10;;
60979;SDS011;46851;49.160;8.980;2024-01-30T11:50:34;19.73;;;8.88;;
60979;SDS011;46851;49.160;8.980;2024-01-30T11:53:00;17.58;;;9.80;;
60979;SDS011;46851;49.160;8.980;2024-01-30T11:55:26;21.95;;;10.40;;
60979;SDS011;46851;49.160;8.980;2024-01-30T11:57:56;18.83;;;9.50;;
60979;SDS011;46851;49.160;8.980;2024-01-30T12:00:22;16.58;;;9.88;;
60979;SDS011;46851;49.160;8.980;2024-01-30T12:02:51;15.57;;;9.43;;
60979;SDS011;46851;49.160;8.980;2024-01-30T12:05:20;14.68;;;9.00;;
60979;SDS011;46851;49.160;8.980;2024-01-30T12:07:47;16.92;;;9.45;;
60979;SDS011;46851;49.160;8.980;2024-01-30T12:10:13;19.00;;;9.85;;
60979;SDS011;46851;49.160;8.980;2024-01-30T12:12:39;15.52;;;9.05;;
60979;SDS011;46851;49.160;8.980;2024-01-30T12:15:06;18.23;;;9.25;;
60979;SDS011;46851;49.160;8.980;2024-01-30T12:17:33;14.77;;;9.07;;
60979;SDS011;46851;49.160;8.980;2024-01-30T12:20:06;15.63;;;9.63;;
60979;SDS011;46851;49.160;8.980;2024-01-30T12:24:58;16.98;;;9.18;;
60979;SDS011;46851;49.160;8.980;2024-01-30T12:27:24;18.02;;;9.10;;
60979;SDS011;46851;49.160;8.980;2024-01-30T12:29:55;20.38;;;9.35;;
60979;SDS011;46851;49.160;8.980;2024-01-30T12:32:22;17.05;;;9.27;;
60979;SDS011;46851;49.160;8.980;2024-01-30T12:34:48;16.45;;;8.93;;
60979;SDS011;46851;49.160;8.980;2024-01-30T12:37:14;17.63;;;9.50;;
60979;SDS011;46851;49.160;8.980;2024-01-30T12:39:47;15.27;;;9.05;;
60979;SDS011;46851;49.160;8.980;2024-01-30T12:42:13;18.00;;;9.52;;
60979;SDS011;46851;49.160;8.980;2024-01-30T12:44:39;14.10;;;9.00;;
60979;SDS011;46851;49.160;8.980;2024-01-30T12:47:05;16.83;;;9.45;;
60979;SDS011;46851;49.160;8.980;2024-01-30T12:49:31;16.65;;;9.52;;
60979;SDS011;46851;49.160;8.980;2024-01-30T12:51:58;15.82;;;9.32;;
60979;SDS011;46851;49.160;8.980;2024-01-30T12:54:24;16.38;;;9.77;;
60979;SDS011;46851;49.160;8.980;2024-01-30T12:56:50;16.00;;;9.55;;
60979;SDS011;46851;49.160;8.980;2024-01-30T12:59:16;18.88;;;9.60;;
60979;SDS011;46851;49.160;8.980;2024-01-30T13:01:42;20.10;;;9.40;;
60979;SDS011;46851;49.160;8.980;2024-01-30T13:04:08;18.00;;;10.45;;
60979;SDS011;46851;49.160;8.980;2024-01-30T13:06:34;16.75;;;10.13;;
60979;SDS011;46851;49.160;8.980;2024-01-30T13:09:00;15.40;;;9.18;;
60979;SDS011;46851;49.160;8.980;2024-01-30T13:11:26;18.15;;;9.13;;
60979;SDS011;46851;49.160;8.980;2024-01-30T13:13:52;11.30;;;8.52;;
60979;SDS011;46851;49.160;8.980;2024-01-30T13:16:18;17.38;;;9.85;;
60979;SDS011;46851;49.160;8.980;2024-01-30T13:18:44;16.40;;;8.70;;
60979;SDS011;46851;49.160;8.980;2024-01-30T13:21:10;14.95;;;9.27;;
60979;SDS011;46851;49.160;8.980;2024-01-30T13:23:36;23.67;;;9.05;;
60979;SDS011;46851;49.160;8.980;2024-01-30T13:26:02;13.45;;;8.73;;
60979;SDS011;46851;49.160;8.980;2024-01-30T13:28:28;19.33;;;8.18;;
60979;SDS011;46851;49.160;8.980;2024-01-30T13:30:54;12.70;;;8.35;;
60979;SDS011;46851;49.160;8.980;2024-01-30T13:33:20;11.15;;;8.63;;
60979;SDS011;46851;49.160;8.980;2024-01-30T13:35:46;13.43;;;8.98;;
60979;SDS011;46851;49.160;8.980;2024-01-30T13:38:12;13.88;;;9.02;;
60979;SDS011;46851;49.160;8.980;2024-01-30T13:40:39;21.58;;;8.93;;
60979;SDS011;46851;49.160;8.980;2024-01-30T13:43:05;15.93;;;9.02;;
60979;SDS011;46851;49.160;8.980;2024-01-30T13:45:30;17.05;;;10.30;;
60979;SDS011;46851;49.160;8.980;2024-01-30T13:47:56;19.10;;;9.10;;
60979;SDS011;46851;49.160;8.980;2024-01-30T13:50:24;19.02;;;9.35;;
60979;SDS011;46851;49.160;8.980;2024-01-30T13:52:50;20.80;;;10.20;;
60979;SDS011;46851;49.160;8.980;2024-01-30T13:55:16;19.27;;;9.70;;
60979;SDS011;46851;49.160;8.980;2024-01-30T13:57:42;24.73;;;10.13;;
60979;SDS011;46851;49.160;8.980;2024-01-30T14:00:08;30.58;;;12.02;;
60979;SDS011;46851;49.160;8.980;2024-01-30T14:02:34;19.10;;;11.65;;
60979;SDS011;46851;49.160;8.980;2024-01-30T14:05:00;19.92;;;12.15;;
60979;SDS011;46851;49.160;8.980;2024-01-30T14:07:26;18.33;;;9.32;;
60979;SDS011;46851;49.160;8.980;2024-01-30T14:09:52;17.70;;;9.45;;
60979;SDS011;46851;49.160;8.980;2024-01-30T14:12:18;21.10;;;9.10;;
60979;SDS011;46851;49.160;8.980;2024-01-30T14:14:44;20.38;;;10.13;;
60979;SDS011;46851;49.160;8.980;2024-01-30T14:17:10;18.50;;;9.35;;
60979;SDS011;46851;49.160;8.980;2024-01-30T14:19:36;23.80;;;10.32;;
60979;SDS011;46851;49.160;8.980;2024-01-30T14:22:02;22.83;;;10.40;;
60979;SDS011;46851;49.160;8.980;2024-01-30T14:24:28;20.73;;;9.60;;
60979;SDS011;46851;49.160;8.980;2024-01-30T14:26:54;20.02;;;9.43;;
60979;SDS011;46851;49.160;8.980;2024-01-30T14:29:20;16.33;;;8.90;;
60979;SDS011;46851;49.160;8.980;2024-01-30T14:31:46;15.80;;;9.13;;
60979;SDS011;46851;49.160;8.980;2024-01-30T14:34:13;15.25;;;8.45;;